• Join FlightAware (Why Join?)
  • Login
  • US Flag 
12:52AM EDT


 

Airport Tracker/Info


-or-


 

Live Flight TrackerFlight Track Log ✈ UAL3598 ✈ 14-Jun-2014 ✈ KEWR - KBGM

Flight Track Log - Related Links

Times and Time Zones

All times are in EDT time to prevent confusion due to time zone crossing. See the UAL3598 flight status page for this flight to view local times or setup timezone preferences in your user account.

Time Position Orientation Groundspeed Altitude Reporting Facility
EDT Latitude Longitude Course Direction KTS MPH feet Rate Location/Type
10:29PM 40.7000 -74.2333 270° West 147 169 2,000  Level New York TRACON
10:30PM 40.7000 -74.3000 270° West 168 193 3,200 1,080 Climbing New York TRACON
10:31PM 40.7000 -74.3500 270° West 182 209 4,200 1,020 Climbing New York TRACON
10:32PM 40.7500 -74.3667 346° North 175 201 5,300 1,020 Climbing New York TRACON
10:33PM 40.8000 -74.3667 360° North 183 211 6,200 960 Climbing New York TRACON
10:34PM 40.8500 -74.3833 346° North 190 219 7,200 1,020 Climbing New York TRACON
10:34PM 40.8767 -74.3919 346° North 187 215 7,900 1,080 Climbing New York Center
10:35PM 40.9261 -74.4119 343° North 187 215 9,000 1,080 Climbing New York Center
10:36PM 40.9800 -74.4333 343° North 187 215 10,200 1,080 Climbing New York Center
10:37PM 41.0325 -74.4514 345° North 194 223 11,200 840 Climbing New York Center
10:38PM 41.0856 -74.4678 347° North 193 222 12,000 780 Climbing New York Center
10:39PM 41.1317 -74.5075 327° Northwest 198 228 12,900 780 Climbing New York Center
10:40PM 41.1686 -74.5597 313° West 192 221 13,700 540 Climbing New York Center
10:41PM 41.2056 -74.6103 314° West 196 226 14,000 120 Climbing New York Center
10:42PM 41.2511 -74.6681 316° Northwest 224 258 14,000  Level New York Center
10:43PM 41.2981 -74.7333 314° West 227 261 14,000  Level New York Center
10:44PM 41.3425 -74.7939 314° West 227 261 14,000  Level New York Center
10:45PM 41.3878 -74.8539 315° West 228 262 14,000  Level New York Center
10:46PM 41.4328 -74.9153 314° West 229 264 14,000  Level New York Center
10:47PM 41.4775 -74.9769 314° West 233 268 14,000 -300 Level New York Center
10:48PM 41.5256 -75.0406 315° West 232 267 13,500 -840 Descending New York Center
10:49PM 41.5761 -75.1067 316° Northwest 241 277 12,300 -1,200 Descending New York Center
10:50PM 41.6231 -75.1719 314° West 248 285 11,100 -720 Descending New York Center
10:51PM 41.6697 -75.2386 313° West 235 270 10,900 -120 Descending New York Center
10:52PM 41.7164 -75.3000 316° Northwest 229 264 10,900  Level New York Center
10:54PM 41.7578 -75.3569 314° West 224 258 10,900 -240 Level New York Center
10:55PM 41.8031 -75.4175 315° West 222 255 10,500 -780 Descending New York Center
10:56PM 41.8489 -75.4808 314° West 226 260 9,400 -1,080 Descending New York Center
10:57PM 41.8914 -75.5397 314° West 229 264 8,400 -1,140 Descending New York Center
10:58PM 41.9381 -75.6033 315° West 229 264 7,100 -1,200 Descending New York Center
10:59PM 41.9836 -75.6683 313° West 229 264 6,000 -1,140 Descending New York Center
11:00PM 42.0264 -75.7278 314° West 229 264 4,800 -960 Descending New York Center
11:01PM 42.0692 -75.7903 313° West 228 262 4,100 -420 Descending New York Center
11:02PM 42.0972 -75.8544 301° West 213 245 4,000 -300 Descending New York Center
11:03PM 42.1183 -75.9050 299° West 187 215 3,600 -600 Descending New York Center
11:04PM 42.1467 -75.9247 333° Northwest 143 165 2,900 -600 Descending New York Center
11:05PM 42.1675 -75.9433 326° Northwest 114 131 2,400 -540 Descending New York Center
11:06PM 42.1900 -75.9614 329° Northwest 101 116 1,900 -540 Descending New York Center